createdAt,value
2018-11-06T00:00:50.328Z,26.70
2018-11-06T00:03:37.379Z,30.40
2018-11-06T00:06:06.361Z,26.20
2018-11-06T00:08:35.255Z,30.23
2018-11-06T00:11:04.197Z,30.00
2018-11-06T00:13:33.088Z,30.77
2018-11-06T00:16:02.010Z,30.23
2018-11-06T00:18:30.933Z,29.23
2018-11-06T00:20:59.826Z,31.80
2018-11-06T00:23:28.803Z,32.07
2018-11-06T00:25:57.705Z,31.77
2018-11-06T00:28:26.615Z,32.60
2018-11-06T00:30:55.538Z,31.77
2018-11-06T00:33:24.496Z,32.00
2018-11-06T00:35:53.377Z,42.53
2018-11-06T00:38:22.314Z,44.67
2018-11-06T00:40:51.220Z,32.43
2018-11-06T00:43:20.144Z,32.33
2018-11-06T00:45:49.091Z,42.85
2018-11-06T00:48:18.019Z,35.87
2018-11-06T00:50:46.912Z,31.23
2018-11-06T00:53:15.877Z,30.60
2018-11-06T00:55:44.823Z,31.03
2018-11-06T00:58:13.688Z,28.43
2018-11-06T01:00:42.628Z,28.87
2018-11-06T01:03:11.572Z,28.70
2018-11-06T01:05:40.473Z,30.87
2018-11-06T01:08:09.438Z,29.00
2018-11-06T01:10:38.346Z,27.70
2018-11-06T01:13:07.294Z,29.20
2018-11-06T01:15:36.194Z,30.13
2018-11-06T01:18:05.408Z,29.03
2018-11-06T01:20:34.344Z,28.30
2018-11-06T01:23:03.290Z,29.10
2018-11-06T01:25:32.221Z,26.83
2018-11-06T01:28:01.133Z,28.93
2018-11-06T01:30:30.018Z,33.25
2018-11-06T01:32:58.937Z,26.33
2018-11-06T01:35:27.858Z,29.00
2018-11-06T01:37:56.779Z,27.83
2018-11-06T01:40:25.691Z,28.93
2018-11-06T01:42:54.607Z,28.73
2018-11-06T01:45:23.523Z,28.13
2018-11-06T01:47:52.524Z,35.25
2018-11-06T01:50:21.363Z,28.40
2018-11-06T01:52:50.308Z,25.77
2018-11-06T01:55:19.222Z,25.93
2018-11-06T01:57:48.137Z,24.90
2018-11-06T02:00:18.386Z,24.77
2018-11-06T02:02:47.583Z,23.73
2018-11-06T02:05:17.589Z,25.10
2018-11-06T02:07:47.741Z,26.40
2018-11-06T02:10:17.113Z,26.20
2018-11-06T02:12:46.770Z,36.45
2018-11-06T02:15:15.662Z,37.05
2018-11-06T02:17:45.225Z,27.40
2018-11-06T02:20:14.935Z,27.20
2018-11-06T02:22:44.649Z,27.50
2018-11-06T02:25:14.043Z,27.33
2018-11-06T02:27:43.057Z,35.17
2018-11-06T02:30:13.673Z,34.13
2018-11-06T02:32:43.480Z,27.97
2018-11-06T02:35:12.357Z,25.87
2018-11-06T02:37:41.277Z,26.50
2018-11-06T02:40:11.870Z,25.47
2018-11-06T02:42:41.285Z,25.07
2018-11-06T02:45:11.017Z,24.67
2018-11-06T02:47:40.382Z,24.23
2018-11-06T02:50:10.062Z,24.03
2018-11-06T02:52:39.012Z,24.53
2018-11-06T02:55:08.437Z,25.07
2018-11-06T02:57:37.445Z,25.67
2018-11-06T03:00:08.302Z,25.43
2018-11-06T03:02:37.211Z,24.90
2018-11-06T03:05:06.811Z,26.00
2018-11-06T03:07:35.675Z,25.60
2018-11-06T03:10:04.737Z,26.00
2018-11-06T03:12:33.580Z,27.13
2018-11-06T03:15:02.545Z,26.77
2018-11-06T03:17:31.460Z,27.67
2018-11-06T03:20:00.414Z,27.07
2018-11-06T03:22:29.344Z,28.83
2018-11-06T03:24:58.317Z,28.60
2018-11-06T03:27:27.234Z,26.87
2018-11-06T03:29:56.171Z,27.10
2018-11-06T03:32:25.094Z,27.23
2018-11-06T03:34:53.998Z,27.20
2018-11-06T03:37:22.941Z,27.63
2018-11-06T03:39:51.883Z,27.23
2018-11-06T03:42:21.032Z,28.07
2018-11-06T03:44:49.937Z,28.20
2018-11-06T03:47:18.873Z,28.47
2018-11-06T03:49:47.836Z,29.20
2018-11-06T03:52:16.765Z,30.90
2018-11-06T03:54:45.694Z,29.67
2018-11-06T03:57:14.620Z,29.63
2018-11-06T03:59:43.601Z,29.57
2018-11-06T04:02:12.560Z,29.27
2018-11-06T04:04:41.521Z,28.90
2018-11-06T04:07:10.420Z,29.93
2018-11-06T04:09:39.344Z,28.13
2018-11-06T04:12:08.295Z,29.67
2018-11-06T04:14:37.198Z,29.33
2018-11-06T04:17:06.143Z,29.60
2018-11-06T04:19:35.043Z,29.90
2018-11-06T04:22:03.976Z,29.40
2018-11-06T04:24:32.870Z,29.13
2018-11-06T04:27:01.839Z,28.00
2018-11-06T04:29:30.751Z,27.23
2018-11-06T04:31:59.672Z,28.73
2018-11-06T04:34:28.585Z,31.03
2018-11-06T04:36:57.519Z,30.73
2018-11-06T04:39:26.435Z,30.97
2018-11-06T04:41:55.352Z,30.77
2018-11-06T04:44:24.272Z,29.73
2018-11-06T04:46:53.176Z,31.27
2018-11-06T04:49:22.436Z,28.90
2018-11-06T04:51:52.476Z,30.03
2018-11-06T04:54:21.408Z,29.67
2018-11-06T04:56:50.287Z,28.17
2018-11-06T04:59:19.220Z,30.77
2018-11-06T05:01:48.144Z,30.70
2018-11-06T05:04:17.036Z,29.73
2018-11-06T05:06:45.972Z,28.63
2018-11-06T05:09:14.875Z,29.50
2018-11-06T05:11:43.793Z,29.07
2018-11-06T05:14:12.838Z,29.93
2018-11-06T05:16:41.725Z,27.33
2018-11-06T05:19:10.642Z,28.57
2018-11-06T05:21:39.600Z,27.90
2018-11-06T05:24:08.538Z,30.57
2018-11-06T05:26:37.484Z,28.33
2018-11-06T05:29:06.369Z,28.37
2018-11-06T05:31:35.294Z,28.17
2018-11-06T05:34:04.189Z,27.57
2018-11-06T05:36:33.122Z,36.13
2018-11-06T05:39:02.158Z,35.90
2018-11-06T05:41:30.986Z,30.00
2018-11-06T05:43:59.940Z,27.90
2018-11-06T05:46:28.816Z,28.73
2018-11-06T05:48:57.730Z,29.23
2018-11-06T05:51:26.721Z,26.57
2018-11-06T05:53:55.622Z,27.60
2018-11-06T05:56:24.527Z,28.57
2018-11-06T05:58:53.468Z,27.27
2018-11-06T06:01:22.375Z,28.20
2018-11-06T06:03:51.321Z,28.50
2018-11-06T06:06:20.236Z,27.80
2018-11-06T06:08:49.172Z,27.20
2018-11-06T06:11:18.197Z,27.60
2018-11-06T06:13:46.976Z,34.80
2018-11-06T06:16:15.885Z,27.53
2018-11-06T06:18:44.817Z,29.20
2018-11-06T06:21:13.738Z,28.57
2018-11-06T06:23:42.659Z,27.33
2018-11-06T06:26:11.585Z,34.78
2018-11-06T06:28:40.556Z,29.00
2018-11-06T06:31:09.480Z,29.43
2018-11-06T06:33:38.419Z,28.90
2018-11-06T06:36:07.348Z,28.43
2018-11-06T06:38:36.252Z,27.93
2018-11-06T06:41:05.298Z,28.80
2018-11-06T06:43:34.099Z,28.50
2018-11-06T06:46:03.094Z,35.58
2018-11-06T06:48:31.996Z,30.33
2018-11-06T06:51:00.930Z,28.40
2018-11-06T06:53:29.834Z,29.30
2018-11-06T06:55:58.779Z,29.40
2018-11-06T06:58:27.669Z,29.20
2018-11-06T07:00:56.630Z,27.30
2018-11-06T07:03:25.533Z,28.60
2018-11-06T07:05:54.544Z,28.10
2018-11-06T07:08:23.461Z,29.03
2018-11-06T07:10:52.387Z,29.27
2018-11-06T07:13:21.327Z,27.57
2018-11-06T07:15:50.225Z,28.00
2018-11-06T07:18:19.186Z,27.73
2018-11-06T07:20:48.064Z,27.50
2018-11-06T07:23:16.965Z,28.20
2018-11-06T07:25:45.903Z,28.60
2018-11-06T07:28:14.784Z,26.70
2018-11-06T07:30:43.706Z,27.57
2018-11-06T07:33:12.600Z,26.70
2018-11-06T07:35:41.786Z,28.50
2018-11-06T07:38:10.472Z,25.93
2018-11-06T07:40:39.468Z,31.23
2018-11-06T07:43:08.309Z,26.97
2018-11-06T07:45:37.245Z,25.83
2018-11-06T07:48:06.127Z,25.47
2018-11-06T07:50:35.193Z,25.60
2018-11-06T07:53:04.023Z,25.20
2018-11-06T07:55:32.969Z,27.10
2018-11-06T07:58:01.869Z,26.47
2018-11-06T08:00:30.829Z,25.80
2018-11-06T08:02:59.758Z,26.03
2018-11-06T08:05:28.672Z,27.07
2018-11-06T08:07:57.573Z,25.30
2018-11-06T08:10:26.552Z,26.37
2018-11-06T08:12:55.520Z,25.50
2018-11-06T08:15:24.444Z,25.27
2018-11-06T08:17:53.457Z,25.97
2018-11-06T08:20:22.300Z,30.25
2018-11-06T08:22:51.181Z,26.57
2018-11-06T08:25:20.075Z,24.73
2018-11-06T08:27:49.112Z,25.50
2018-11-06T08:30:17.870Z,24.77
2018-11-06T08:32:47.042Z,25.00
2018-11-06T08:35:16.905Z,24.70
2018-11-06T08:37:45.807Z,29.03
2018-11-06T08:40:16.019Z,25.33
2018-11-06T08:42:44.945Z,28.93
2018-11-06T08:45:14.933Z,28.67
2018-11-06T08:47:44.439Z,28.98
2018-11-06T08:50:14.765Z,23.90
2018-11-06T08:52:43.773Z,23.83
2018-11-06T08:55:13.926Z,23.00
2018-11-06T08:57:43.580Z,24.20
2018-11-06T09:00:14.587Z,23.30
2018-11-06T09:02:44.827Z,23.50
2018-11-06T09:05:15.418Z,23.37
2018-11-06T09:07:45.221Z,24.00
2018-11-06T09:10:15.111Z,24.17
2018-11-06T09:12:44.087Z,23.47
2018-11-06T09:15:14.690Z,23.13
2018-11-06T09:17:43.554Z,22.60
2018-11-06T09:20:13.746Z,22.10
2018-11-06T09:22:42.708Z,22.83
2018-11-06T09:25:12.891Z,25.55
2018-11-06T09:27:42.547Z,22.43
2018-11-06T09:30:16.393Z,21.33
2018-11-06T09:32:45.349Z,20.00
2018-11-06T09:35:14.818Z,20.57
2018-11-06T09:37:44.158Z,20.37
2018-11-06T09:40:17.241Z,19.80
2018-11-06T09:42:46.209Z,18.50
2018-11-06T09:45:15.214Z,18.03
2018-11-06T09:47:44.190Z,17.53
2018-11-06T09:50:14.450Z,16.43
2018-11-06T09:52:44.128Z,16.80
2018-11-06T09:55:13.373Z,15.73
2018-11-06T09:57:42.391Z,16.43
2018-11-06T10:00:13.412Z,17.98
2018-11-06T10:02:42.416Z,16.20
2018-11-06T10:05:12.194Z,16.07
2018-11-06T10:07:41.148Z,15.90
2018-11-06T10:10:12.078Z,15.00
2018-11-06T10:12:41.419Z,15.80
2018-11-06T10:15:12.361Z,14.80
2018-11-06T10:17:42.358Z,14.63
2018-11-06T10:20:12.108Z,14.00
2018-11-06T10:22:41.081Z,14.50
2018-11-06T10:25:10.076Z,14.90
2018-11-06T10:27:39.597Z,14.43
2018-11-06T10:30:10.738Z,15.40
2018-11-06T10:32:39.649Z,14.50
2018-11-06T10:35:09.351Z,12.78
2018-11-06T10:37:38.342Z,14.40
2018-11-06T10:40:13.480Z,14.80
2018-11-06T10:42:42.867Z,15.00
2018-11-06T10:45:11.816Z,16.00
2018-11-06T10:47:40.803Z,14.58
2018-11-06T10:50:11.389Z,14.93
2018-11-06T10:52:40.649Z,14.40
2018-11-06T10:55:09.884Z,13.75
2018-11-06T10:57:39.811Z,13.68
2018-11-06T11:00:29.358Z,15.20
2018-11-06T11:03:15.853Z,13.15
2018-11-06T11:05:44.774Z,12.60
2018-11-06T11:08:13.692Z,12.13
2018-11-06T11:10:42.629Z,12.47
2018-11-06T11:13:11.534Z,11.90
2018-11-06T11:15:40.458Z,12.03
2018-11-06T11:18:09.435Z,12.33
2018-11-06T11:20:38.423Z,12.37
2018-11-06T11:23:07.427Z,11.78
2018-11-06T11:25:36.401Z,11.28
2018-11-06T11:28:05.326Z,10.58
2018-11-06T11:30:34.222Z,10.93
2018-11-06T11:33:03.171Z,10.08
2018-11-06T11:35:32.085Z,9.93
2018-11-06T11:38:01.019Z,9.95
2018-11-06T11:40:29.915Z,9.58
2018-11-06T11:42:58.846Z,9.08
2018-11-06T11:45:27.780Z,9.33
2018-11-06T11:47:56.688Z,9.00
2018-11-06T11:50:25.611Z,8.78
2018-11-06T11:52:54.521Z,7.85
2018-11-06T11:55:23.439Z,8.40
2018-11-06T11:57:52.378Z,7.40
2018-11-06T12:00:21.700Z,6.97
2018-11-06T12:02:50.641Z,7.28
2018-11-06T12:05:19.541Z,6.45
2018-11-06T12:07:48.432Z,6.20
2018-11-06T12:10:17.345Z,5.67
2018-11-06T12:12:46.209Z,5.58
2018-11-06T12:15:16.479Z,5.20
2018-11-06T12:17:46.160Z,5.17
2018-11-06T12:20:15.563Z,5.33
2018-11-06T12:22:44.461Z,5.80
2018-11-06T12:25:14.085Z,5.92
2018-11-06T12:27:42.983Z,5.90
2018-11-06T12:30:16.771Z,6.33
2018-11-06T12:32:45.850Z,7.03
2018-11-06T12:35:14.968Z,6.75
2018-11-06T12:37:43.905Z,6.22
2018-11-06T12:40:13.579Z,5.95
2018-11-06T12:42:42.885Z,6.22
2018-11-06T12:45:13.125Z,6.60
2018-11-06T12:47:42.414Z,5.85
2018-11-06T12:50:11.414Z,6.30
2018-11-06T12:52:40.733Z,5.83
2018-11-06T12:55:11.190Z,6.40
2018-11-06T12:57:40.169Z,5.95
2018-11-06T13:00:12.319Z,5.90
2018-11-06T13:02:41.251Z,5.80
2018-11-06T13:05:10.765Z,5.35
2018-11-06T13:07:41.249Z,5.60
2018-11-06T13:10:11.287Z,5.95
2018-11-06T13:12:40.701Z,5.53
2018-11-06T13:15:09.852Z,5.17
2018-11-06T13:17:38.984Z,5.15
2018-11-06T13:20:09.957Z,4.97
2018-11-06T13:22:40.062Z,4.87
2018-11-06T13:25:09.228Z,4.50
2018-11-06T13:27:39.360Z,5.03
2018-11-06T13:30:10.770Z,4.25
2018-11-06T13:32:40.808Z,5.35
2018-11-06T13:35:10.316Z,4.83
2018-11-06T13:37:39.678Z,4.70
2018-11-06T13:40:10.901Z,4.42
2018-11-06T13:42:39.968Z,4.08
2018-11-06T13:45:11.637Z,4.55
2018-11-06T13:47:40.433Z,4.53
2018-11-06T13:50:09.355Z,4.20
2018-11-06T13:52:38.553Z,4.33
2018-11-06T13:55:08.689Z,4.12
2018-11-06T13:57:37.601Z,4.55
2018-11-06T14:00:10.338Z,4.65
2018-11-06T14:02:39.261Z,5.03
2018-11-06T14:05:08.172Z,4.53
2018-11-06T14:07:37.095Z,4.28
2018-11-06T14:10:06.345Z,5.10
2018-11-06T14:12:35.281Z,4.87
2018-11-06T14:15:04.181Z,4.80
2018-11-06T14:17:33.071Z,4.67
2018-11-06T14:20:02.002Z,5.30
2018-11-06T14:22:31.196Z,5.92
2018-11-06T14:25:00.104Z,6.57
2018-11-06T14:27:29.161Z,6.42
2018-11-06T14:29:57.976Z,6.05
2018-11-06T14:32:26.863Z,5.65
2018-11-06T14:34:55.843Z,5.85
2018-11-06T14:37:25.110Z,5.58
2018-11-06T14:39:54.026Z,5.92
2018-11-06T14:42:22.981Z,6.17
2018-11-06T14:44:51.818Z,6.33
2018-11-06T14:47:20.723Z,6.62
2018-11-06T14:49:49.639Z,6.75
2018-11-06T14:52:18.556Z,7.67
2018-11-06T14:54:47.472Z,6.50
2018-11-06T14:57:16.389Z,7.33
2018-11-06T14:59:45.331Z,6.83
2018-11-06T15:02:14.217Z,7.35
2018-11-06T15:04:43.137Z,7.00
2018-11-06T15:07:12.064Z,7.40
2018-11-06T15:09:41.013Z,8.20
2018-11-06T15:12:09.956Z,7.90
2018-11-06T15:14:38.920Z,7.85
2018-11-06T15:17:07.878Z,8.83
2018-11-06T15:19:37.010Z,9.25
2018-11-06T15:22:05.942Z,8.18
2018-11-06T15:24:34.854Z,9.13
2018-11-06T15:27:03.782Z,8.58
2018-11-06T15:29:32.716Z,8.50
2018-11-06T15:32:01.657Z,9.40
2018-11-06T15:34:30.596Z,9.15
2018-11-06T15:36:59.557Z,9.50
2018-11-06T15:39:28.605Z,10.30
2018-11-06T15:41:57.640Z,9.73
2018-11-06T15:44:26.383Z,9.35
2018-11-06T15:46:55.330Z,10.85
2018-11-06T15:49:24.294Z,10.10
2018-11-06T15:51:53.213Z,10.20
2018-11-06T15:54:22.197Z,9.17
2018-11-06T15:56:51.055Z,8.37
2018-11-06T15:59:20.033Z,9.77
2018-11-06T16:01:49.070Z,9.33
2018-11-06T16:04:17.970Z,10.03
2018-11-06T16:06:46.908Z,9.90
2018-11-06T16:09:15.804Z,11.40
2018-11-06T16:11:45.372Z,10.50
2018-11-06T16:14:14.832Z,10.73
2018-11-06T16:16:44.304Z,11.20
2018-11-06T16:19:13.231Z,11.23
2018-11-06T16:21:42.200Z,10.33
2018-11-06T16:24:11.168Z,11.27
2018-11-06T16:26:40.067Z,10.87
2018-11-06T16:29:09.025Z,10.40
2018-11-06T16:31:38.006Z,10.57
2018-11-06T16:34:06.952Z,11.23
2018-11-06T16:36:35.881Z,11.10
2018-11-06T16:39:07.737Z,11.17
2018-11-06T16:41:36.775Z,11.30
2018-11-06T16:44:05.667Z,10.70
2018-11-06T16:46:34.539Z,11.43
2018-11-06T16:49:03.472Z,11.17
2018-11-06T16:51:32.400Z,12.13
2018-11-06T16:54:01.339Z,10.83
2018-11-06T16:56:30.291Z,12.10
2018-11-06T16:58:59.241Z,11.60
2018-11-06T17:01:28.319Z,12.37
2018-11-06T17:03:57.276Z,10.80
2018-11-06T17:06:35.355Z,11.90
2018-11-06T17:09:06.198Z,11.57
2018-11-06T17:11:35.088Z,10.47
2018-11-06T17:14:04.049Z,11.47
2018-11-06T17:16:33.228Z,11.47
2018-11-06T17:19:02.180Z,11.13
2018-11-06T17:21:31.111Z,15.37
2018-11-06T17:24:00.059Z,49.45
2018-11-06T17:26:29.060Z,21.52
2018-11-06T17:28:58.015Z,16.50
2018-11-06T17:31:27.112Z,22.47
2018-11-06T17:33:56.052Z,16.83
2018-11-06T17:36:24.969Z,14.87
2018-11-06T17:38:53.911Z,12.50
2018-11-06T17:41:22.873Z,13.53
2018-11-06T17:43:51.838Z,11.63
2018-11-06T17:46:20.855Z,10.97
2018-11-06T17:48:50.123Z,11.17
2018-11-06T17:51:19.059Z,10.03
2018-11-06T17:53:48.013Z,12.58
2018-11-06T17:56:17.014Z,11.07
2018-11-06T17:58:46.119Z,10.60
2018-11-06T18:01:15.096Z,11.27
2018-11-06T18:03:44.048Z,10.53
2018-11-06T18:06:13.014Z,11.20
2018-11-06T18:08:41.948Z,11.30
2018-11-06T18:11:10.880Z,12.30
2018-11-06T18:13:39.947Z,11.43
2018-11-06T18:16:08.900Z,11.20
2018-11-06T18:18:37.885Z,11.13
2018-11-06T18:21:06.924Z,10.97
2018-11-06T18:23:35.850Z,11.40
2018-11-06T18:26:04.771Z,11.87
2018-11-06T18:28:33.894Z,11.37
2018-11-06T18:31:02.877Z,11.73
2018-11-06T18:33:31.875Z,12.20
2018-11-06T18:36:00.823Z,11.77
2018-11-06T18:38:29.895Z,11.57
2018-11-06T18:40:58.740Z,13.27
2018-11-06T18:43:27.706Z,12.97
2018-11-06T18:45:56.612Z,13.37
2018-11-06T18:48:25.564Z,12.30
2018-11-06T18:50:54.502Z,13.20
2018-11-06T18:53:23.480Z,13.20
2018-11-06T18:55:52.394Z,13.70
2018-11-06T18:58:21.433Z,13.67
2018-11-06T19:00:50.334Z,13.90
2018-11-06T19:03:19.268Z,12.90
2018-11-06T19:05:48.212Z,15.78
2018-11-06T19:08:17.226Z,13.73
2018-11-06T19:10:46.278Z,13.13
2018-11-06T19:13:15.164Z,14.53
2018-11-06T19:15:44.103Z,13.77
2018-11-06T19:18:13.048Z,14.03
2018-11-06T19:20:41.964Z,13.37
2018-11-06T19:23:10.942Z,15.10
2018-11-06T19:25:39.852Z,13.93
2018-11-06T19:28:08.817Z,13.20
2018-11-06T19:30:37.828Z,13.83
2018-11-06T19:33:06.936Z,13.63
2018-11-06T19:35:35.905Z,14.07
2018-11-06T19:38:04.889Z,15.23
2018-11-06T19:40:33.919Z,16.53
2018-11-06T19:43:02.939Z,16.63
2018-11-06T19:45:31.765Z,15.93
2018-11-06T19:48:00.703Z,15.40
2018-11-06T19:50:29.623Z,15.17
2018-11-06T19:52:58.743Z,14.23
2018-11-06T19:55:27.790Z,14.70
2018-11-06T19:57:56.746Z,14.63
2018-11-06T20:00:25.701Z,15.10
2018-11-06T20:02:54.950Z,14.33
2018-11-06T20:05:23.964Z,15.17
2018-11-06T20:07:53.284Z,15.10
2018-11-06T20:10:23.760Z,15.27
2018-11-06T20:12:53.838Z,14.87
2018-11-06T20:15:22.924Z,14.37
2018-11-06T20:17:51.984Z,14.73
2018-11-06T20:20:25.132Z,14.20
2018-11-06T20:22:54.125Z,13.00
2018-11-06T20:25:23.205Z,16.37
2018-11-06T20:27:52.190Z,14.10
2018-11-06T20:30:22.490Z,12.83
2018-11-06T20:32:51.399Z,14.10
2018-11-06T20:35:20.499Z,12.97
2018-11-06T20:37:49.500Z,12.90
2018-11-06T20:40:19.837Z,13.57
2018-11-06T20:42:48.955Z,13.87
2018-11-06T20:45:18.896Z,13.63
2018-11-06T20:47:47.838Z,13.30
2018-11-06T20:50:17.990Z,16.02
2018-11-06T20:52:47.252Z,14.53
2018-11-06T20:55:16.926Z,14.90
2018-11-06T20:57:46.155Z,13.80
2018-11-06T21:00:29.080Z,14.13
2018-11-06T21:03:02.053Z,14.33
2018-11-06T21:05:30.972Z,13.90
2018-11-06T21:07:59.963Z,16.23
2018-11-06T21:10:30.293Z,15.10
2018-11-06T21:12:59.311Z,14.87
2018-11-06T21:15:28.263Z,15.10
2018-11-06T21:17:57.413Z,15.27
2018-11-06T21:20:26.679Z,14.93
2018-11-06T21:22:55.560Z,14.27
2018-11-06T21:25:24.842Z,17.43
2018-11-06T21:27:53.672Z,15.00
2018-11-06T21:30:22.652Z,15.43
2018-11-06T21:32:52.627Z,15.20
2018-11-06T21:35:21.612Z,15.97
2018-11-06T21:37:50.638Z,17.75
2018-11-06T21:40:20.853Z,16.00
2018-11-06T21:42:50.131Z,17.07
2018-11-06T21:45:19.441Z,14.27
2018-11-06T21:47:49.241Z,15.47
2018-11-06T21:50:18.683Z,14.70
2018-11-06T21:52:47.632Z,14.57
2018-11-06T21:55:17.758Z,14.33
2018-11-06T21:57:46.786Z,17.67
2018-11-06T22:00:19.856Z,14.93
2018-11-06T22:02:48.748Z,15.30
2018-11-06T22:05:18.953Z,14.97
2018-11-06T22:07:48.320Z,14.93
2018-11-06T22:10:18.616Z,15.43
2018-11-06T22:12:47.622Z,14.37
2018-11-06T22:15:17.602Z,13.73
2018-11-06T22:17:46.653Z,44.10
2018-11-06T22:20:16.791Z,16.90
2018-11-06T22:22:46.339Z,14.93
2018-11-06T22:25:15.286Z,14.00
2018-11-06T22:27:44.527Z,15.07
2018-11-06T22:30:14.628Z,13.97
2018-11-06T22:32:44.258Z,14.27
2018-11-06T22:35:14.366Z,15.63
2018-11-06T22:37:43.383Z,13.80
2018-11-06T22:40:13.571Z,12.40
2018-11-06T22:42:42.540Z,12.83
2018-11-06T22:45:12.995Z,12.77
2018-11-06T22:47:42.061Z,12.87
2018-11-06T22:50:12.830Z,11.93
2018-11-06T22:52:42.230Z,12.53
2018-11-06T22:55:11.192Z,13.68
2018-11-06T22:57:40.132Z,12.60
2018-11-06T23:00:18.029Z,12.30
2018-11-06T23:02:46.952Z,11.03
2018-11-06T23:05:15.910Z,11.80
2018-11-06T23:08:02.487Z,11.30
2018-11-06T23:10:31.445Z,11.37
2018-11-06T23:13:00.351Z,11.10
2018-11-06T23:15:29.311Z,11.43
2018-11-06T23:17:58.289Z,11.17
2018-11-06T23:20:27.277Z,11.20
2018-11-06T23:22:56.162Z,10.43
2018-11-06T23:25:25.084Z,10.30
2018-11-06T23:27:54.024Z,14.53
2018-11-06T23:30:22.939Z,10.83
2018-11-06T23:32:51.884Z,18.50
2018-11-06T23:35:20.813Z,29.07
2018-11-06T23:37:49.783Z,20.63
2018-11-06T23:40:18.708Z,18.27
2018-11-06T23:42:47.651Z,26.53
2018-11-06T23:45:16.585Z,22.50
2018-11-06T23:47:45.528Z,12.60
2018-11-06T23:50:14.488Z,13.20
2018-11-06T23:52:43.399Z,13.90
2018-11-06T23:55:12.399Z,13.83
2018-11-06T23:57:47.776Z,12.57
